createdAt,value
2022-07-29T00:08:53.261Z,78.26
2022-07-29T00:15:31.867Z,78.81
2022-07-29T00:42:53.308Z,79.56
2022-07-29T01:35:39.896Z,75.38
2022-07-29T01:41:54.226Z,75.91
2022-07-29T02:22:10.444Z,76.97
2022-07-29T02:27:46.862Z,75.90
2022-07-29T02:46:57.622Z,74.57
2022-07-29T02:53:42.238Z,73.98
2022-07-29T03:06:28.161Z,75.50
2022-07-29T03:22:05.337Z,75.43
2022-07-29T03:44:13.151Z,74.14
2022-07-29T03:49:40.704Z,73.75
2022-07-29T03:55:21.596Z,74.13
2022-07-29T04:01:00.654Z,74.56
2022-07-29T04:14:36.095Z,75.31
2022-07-29T04:19:46.594Z,75.25
2022-07-29T04:24:53.489Z,74.21
2022-07-29T04:30:05.587Z,75.68
2022-07-29T04:36:32.004Z,74.58
2022-07-29T04:41:41.698Z,73.84
2022-07-29T04:46:49.132Z,73.37
2022-07-29T04:52:11.939Z,73.13
2022-07-29T04:57:30.500Z,70.31
2022-07-29T05:02:42.022Z,69.58
2022-07-29T05:08:10.933Z,68.64
2022-07-29T05:13:18.765Z,69.16
2022-07-29T05:18:27.354Z,69.30
2022-07-29T05:23:43.584Z,69.95
2022-07-29T05:28:48.335Z,71.90
2022-07-29T05:33:59.707Z,72.99
2022-07-29T05:39:16.928Z,74.01
2022-07-29T05:44:25.412Z,73.88
2022-07-29T05:49:37.736Z,73.14
2022-07-29T05:54:44.762Z,72.35
2022-07-29T05:59:51.540Z,69.59
2022-07-29T06:05:02.849Z,69.08
2022-07-29T06:10:14.488Z,67.35
2022-07-29T06:15:18.733Z,66.47
2022-07-29T06:20:34.609Z,63.00
2022-07-29T06:25:49.527Z,61.84
2022-07-29T06:30:57.820Z,59.91
2022-07-29T06:36:02.021Z,58.73
2022-07-29T06:41:25.220Z,58.52
2022-07-29T06:52:09.117Z,56.51
2022-07-29T06:57:15.661Z,56.79
2022-07-29T07:02:23.073Z,56.65
2022-07-29T07:07:44.429Z,56.98
2022-07-29T07:13:01.640Z,57.13
2022-07-29T07:18:12.435Z,56.96
2022-07-29T07:23:18.608Z,55.93
2022-07-29T07:28:37.193Z,55.36
2022-07-29T07:33:44.474Z,54.90
2022-07-29T07:39:02.869Z,54.77
2022-07-29T07:44:20.358Z,53.78
2022-07-29T07:49:53.663Z,52.73
2022-07-29T07:55:25.484Z,52.19
2022-07-29T08:00:45.860Z,51.51
2022-07-29T08:05:55.565Z,51.67
2022-07-29T08:11:09.033Z,51.03
2022-07-29T08:16:21.084Z,50.71
2022-07-29T08:22:41.432Z,50.16
2022-07-29T08:34:27.042Z,49.08
2022-07-29T08:39:54.815Z,47.98
2022-07-29T08:46:10.460Z,46.62
2022-07-29T08:51:36.453Z,45.18
2022-07-29T08:57:29.407Z,44.54
2022-07-29T09:02:41.920Z,44.01
2022-07-29T09:07:49.894Z,42.89
2022-07-29T09:12:54.148Z,42.76
2022-07-29T09:17:59.511Z,41.13
2022-07-29T09:23:10.349Z,40.90
2022-07-29T09:28:17.623Z,39.49
2022-07-29T09:33:22.688Z,40.22
2022-07-29T09:38:28.394Z,40.41
2022-07-29T09:43:34.064Z,38.61
2022-07-29T09:48:38.629Z,38.74
2022-07-29T09:53:44.363Z,39.35
2022-07-29T09:58:48.664Z,37.96
2022-07-29T10:03:54.305Z,37.95
2022-07-29T10:09:15.017Z,36.80
2022-07-29T10:14:20.045Z,37.01
2022-07-29T10:19:24.542Z,37.03
2022-07-29T10:24:32.396Z,36.76
2022-07-29T10:29:37.742Z,35.73
2022-07-29T10:35:10.818Z,34.74
2022-07-29T10:40:47.331Z,34.96
2022-07-29T10:45:57.257Z,33.97
2022-07-29T10:51:04.159Z,34.87
2022-07-29T10:56:27.099Z,34.58
2022-07-29T11:01:37.178Z,34.33
2022-07-29T11:07:17.528Z,32.14
2022-07-29T11:12:52.270Z,32.47
2022-07-29T11:18:14.826Z,32.38
2022-07-29T11:23:33.815Z,32.50
2022-07-29T11:28:50.862Z,30.98
2022-07-29T11:33:56.953Z,31.53
2022-07-29T11:44:59.045Z,31.71
2022-07-29T11:50:13.481Z,31.73
2022-07-29T11:55:20.095Z,31.04
2022-07-29T12:00:31.914Z,30.21
2022-07-29T12:05:39.731Z,30.15
2022-07-29T12:10:53.158Z,30.51
2022-07-29T12:16:01.593Z,31.80
2022-07-29T12:21:06.539Z,32.32
2022-07-29T12:26:21.783Z,31.96
2022-07-29T12:31:43.537Z,30.67
2022-07-29T12:36:49.466Z,30.22
2022-07-29T12:41:53.932Z,29.77
2022-07-29T12:47:11.135Z,28.89
2022-07-29T12:52:30.473Z,28.34
2022-07-29T12:57:47.871Z,28.57
2022-07-29T13:02:59.400Z,28.62
2022-07-29T13:08:20.377Z,29.61
2022-07-29T13:13:26.296Z,29.30
2022-07-29T13:18:33.129Z,30.05
2022-07-29T13:23:38.137Z,29.56
2022-07-29T13:28:44.177Z,30.10
2022-07-29T13:33:50.045Z,29.36
2022-07-29T13:38:54.179Z,28.41
2022-07-29T13:43:58.316Z,28.25
2022-07-29T13:49:06.706Z,27.89
2022-07-29T13:54:11.703Z,27.68
2022-07-29T13:59:15.832Z,28.66
2022-07-29T14:04:24.011Z,31.15
2022-07-29T14:09:28.729Z,30.74
2022-07-29T14:14:33.791Z,31.69
2022-07-29T14:19:40.853Z,31.79
2022-07-29T14:24:45.560Z,31.55
2022-07-29T14:29:50.176Z,31.55
2022-07-29T14:34:55.981Z,32.58
2022-07-29T14:40:04.424Z,32.36
2022-07-29T14:45:10.575Z,32.57
2022-07-29T14:50:17.273Z,33.83
2022-07-29T14:55:36.522Z,34.29
2022-07-29T15:00:40.687Z,34.68
2022-07-29T15:05:47.754Z,34.56
2022-07-29T15:10:52.519Z,35.45
2022-07-29T15:16:00.066Z,35.30
2022-07-29T15:21:09.592Z,35.45
2022-07-29T15:26:13.547Z,35.40
2022-07-29T15:31:17.706Z,34.52
2022-07-29T15:36:50.966Z,34.87
2022-07-29T15:41:47.632Z,35.03
2022-07-29T15:47:07.493Z,34.80
2022-07-29T15:52:13.039Z,34.17
2022-07-29T15:57:17.625Z,34.50
2022-07-29T16:02:21.912Z,34.35
2022-07-29T16:07:31.475Z,34.93
2022-07-29T16:12:36.921Z,35.22
2022-07-29T16:17:40.995Z,34.89
2022-07-29T16:22:46.684Z,34.02
2022-07-29T16:27:50.793Z,34.40
2022-07-29T16:32:54.991Z,34.67
2022-07-29T16:38:00.651Z,34.96
2022-07-29T16:43:06.578Z,35.32
2022-07-29T16:48:11.102Z,35.44
2022-07-29T16:53:17.315Z,35.51
2022-07-29T16:58:21.592Z,36.12
2022-07-29T17:03:25.799Z,37.20
2022-07-29T17:08:31.425Z,37.96
2022-07-29T17:13:35.607Z,38.84
2022-07-29T17:18:39.932Z,39.54
2022-07-29T17:23:45.665Z,43.38
2022-07-29T17:28:49.715Z,44.81
2022-07-29T17:33:58.342Z,44.86
2022-07-29T17:39:08.486Z,45.64
2022-07-29T17:44:12.706Z,46.41
2022-07-29T17:49:17.624Z,47.14
2022-07-29T17:54:23.134Z,47.33
2022-07-29T17:59:30.893Z,47.87
2022-07-29T18:04:36.223Z,47.76
2022-07-29T18:09:41.787Z,48.06
2022-07-29T18:14:45.942Z,48.01
2022-07-29T18:19:50.066Z,48.85
2022-07-29T18:24:55.611Z,48.51
2022-07-29T18:29:59.913Z,48.58
2022-07-29T18:35:09.567Z,48.13
2022-07-29T18:40:15.301Z,48.80
2022-07-29T18:45:19.911Z,48.79
2022-07-29T18:50:29.147Z,48.62
2022-07-29T18:55:35.358Z,48.80
2022-07-29T19:00:39.535Z,49.10
2022-07-29T19:05:45.902Z,49.37
2022-07-29T19:10:52.037Z,49.71
2022-07-29T19:15:56.233Z,49.16
2022-07-29T19:21:00.393Z,49.67
2022-07-29T19:26:06.669Z,49.83
2022-07-29T19:31:13.466Z,49.75
2022-07-29T19:36:17.725Z,49.93
2022-07-29T19:41:25.018Z,49.60
2022-07-29T19:46:30.062Z,49.27
2022-07-29T19:51:34.881Z,49.38
2022-07-29T19:56:42.149Z,49.32
2022-07-29T20:01:46.784Z,49.40
2022-07-29T20:06:51.751Z,49.01
2022-07-29T20:11:57.307Z,48.55
2022-07-29T20:17:02.265Z,48.81
2022-07-29T20:22:07.164Z,48.92
2022-07-29T20:27:13.407Z,49.39
2022-07-29T20:32:17.963Z,49.13
2022-07-29T20:37:22.296Z,48.75
2022-07-29T20:42:27.773Z,48.77
2022-07-29T20:47:31.997Z,48.86
2022-07-29T20:52:36.316Z,48.93
2022-07-29T20:57:42.184Z,48.78
2022-07-29T21:02:46.817Z,48.42
2022-07-29T21:07:54.309Z,48.29
2022-07-29T21:13:02.378Z,48.93
2022-07-29T21:18:16.411Z,48.78
2022-07-29T21:23:20.630Z,48.89
2022-07-29T21:28:31.188Z,49.04
2022-07-29T21:33:35.297Z,49.20
2022-07-29T21:38:39.718Z,49.21
2022-07-29T21:43:46.196Z,48.94
2022-07-29T21:48:50.374Z,48.93
2022-07-29T21:53:54.627Z,48.78
2022-07-29T21:59:00.623Z,48.98
2022-07-29T22:04:04.838Z,48.43
2022-07-29T22:09:09.147Z,48.25
2022-07-29T22:14:19.469Z,49.09
2022-07-29T22:19:27.406Z,49.00
2022-07-29T22:24:33.136Z,48.94
2022-07-29T22:29:39.957Z,48.48
2022-07-29T22:34:44.047Z,48.63
2022-07-29T22:39:48.140Z,48.22
2022-07-29T22:44:53.758Z,48.52
2022-07-29T22:49:57.837Z,48.97
2022-07-29T22:55:02.303Z,48.67
2022-07-29T23:00:09.327Z,48.90
2022-07-29T23:05:15.848Z,49.13
2022-07-29T23:10:20.682Z,49.11
2022-07-29T23:15:26.125Z,48.88
2022-07-29T23:20:30.294Z,49.10
2022-07-29T23:25:34.620Z,49.08
2022-07-29T23:30:40.779Z,49.49
2022-07-29T23:35:45.001Z,49.38
2022-07-29T23:40:49.104Z,50.13
2022-07-29T23:45:54.628Z,50.49
2022-07-29T23:51:02.294Z,50.31
2022-07-29T23:56:07.538Z,50.35
